DBBB/COO METAR and TAF weather

Enter ICAO airport designator
Station Type Date Time Source
DBBB METAR 2021/09/25 12:00 UTC NOAA

DBBB 251200Z 20009KT 180V240 9999 SCT013 FEW022CB 30/26 Q1012 NOSIG


Station Type Date Time Source
DBBB Decoded METAR 2021/09/25 12:00 UTC NOAA

Cotonou, Benin (DBBB) 06-21N 002-23E 9M
Sep 25, 2021 - 08:00 AM EDT / 2021.09.25 1200 UTC
Wind: from the SSW (200 degrees) at 10 MPH (9 KT) (direction variable):0
Visibility: greater than 7 mile(s):0
Sky conditions: partly cloudy
Weather: Cumulonimbus clouds observed
Temperature: 86 F (30 C)
Heat index: 99.3 F (37.4 C):1
Dew Point: 78 F (26 C)
Relative Humidity: 79%
Pressure (altimeter): 29.88 in. Hg (1012 hPa)
ob: DBBB 251200Z 20009KT 180V240 9999 SCT013 FEW022CB 30/26 Q1012 NOSIG
cycle: 12

Station Type Date Time Source
DBBB TAF 2021/09/25 12:36 UTC NOAA

TAF TAF DBBB 251100Z 2512/2618 22010KT 9999 SCT012
TEMPO 2513/2520 TS BKN010 FEW023CB PROB30 2515/2519 4000 TSRA
TEMPO 2523/2606 VRB03KT

Example: see airport list